Weather observations for the past three days for
Natchitoches, Natchitoches Regional Airport
Imperial (Metric)
Date Time (cdt) Wind (mph) Vis. (mi.) Weather Sky Cond. Temperature (ºF) Relative Humidity Wind Chill (°F) Heat Index (°F) Pressure Precipitation (in)
Air Dwpt 6 hour altimeter (in) sea level (mb) 1 hr 3 hr 6 hr
Max. Min.
08 04:15 Calm 10.00 Fair CLR 61 59.5 95% 29.98 0.0
08 03:55 Calm 10.00 Fair CLR 61.5 58.3 89% 29.98 0.0
08 03:35 Calm 10.00 Fair CLR 62.1 58.1 87% 29.98 0.0
08 03:15 Calm 10.00 Fair CLR 62.6 58.3 86% 29.97 0.0
08 02:55 Calm 10.00 Fair CLR 63 58.3 85% 29.97 0.0
08 02:35 Calm 10.00 Fair CLR 63.3 58.3 84% 29.97 0.0
08 02:15 Calm 10.00 Fair CLR 63.1 58.3 84% 29.97 0.0
08 01:55 Calm 10.00 Fair CLR 63.7 58.1 82% 29.98 0.0
08 01:35 Calm 10.00 Fair CLR 63.7 58.3 83% 29.98 0.0
08 01:15 Calm 10.00 Fair CLR 63.9 59.4 85% 29.98 0.0
08 00:55 Calm 10.00 Fair CLR 64.2 59.9 68.9 63.1 86% 29.98 0.0
08 00:35 Calm 10.00 Fair CLR 64 60.6 89% 30 0.0
08 00:15 Calm 10.00 Fair CLR 64.8 60.8 87% 29.99 0.0
07 23:55 Calm 10.00 Fair CLR 64.8 62.1 91% 29.99 0.0
07 23:35 Calm 10.00 Fair CLR 64.8 61.7 90% 29.98 0.0
07 23:15 Calm 10.00 Fair CLR 63.1 62.8 99% 30 0.0
07 22:55 Calm 10.00 Fair CLR 64.9 61.7 89% 30 0.0
07 22:35 Calm 10.00 Fair CLR 65.5 60.6 84% 30.01 0.0
07 22:15 Calm 10.00 Fair CLR 66.2 60.4 82% 30 0.0
07 21:55 Calm 10.00 Fair CLR 65.5 61 85% 30 0.0
07 21:35 Calm 10.00 Fair CLR 65.3 60.8 85% 30 0.0
07 21:15 Calm 10.00 Fair CLR 66.7 59.5 78% 29.97 0.0
07 20:55 Calm 10.00 Fair CLR 65.3 62.4 90% 29.96 0.0
07 20:35 Calm 10.00 Fair CLR 64.2 62.6 95% 29.99 0.0
07 20:15 Calm 10.00 Fair CLR 67.1 59.9 78% 29.98 0.0
07 19:55 Calm 10.00 Fair CLR 65.8 60.3 82% 29.97 0.0
07 19:35 Calm 10.00 Fair CLR 67.8 59.2 74% 29.98 0.0
07 19:15 Calm 10.00 Fair CLR 68.9 58.6 70% 29.97 0.0
07 18:55 Calm 10.00 Fair CLR 68.9 58.5 72.5 68.9 70% 29.97 0.0
07 18:35 Calm 10.00 Fair CLR 69.6 58.3 67% 29.98 0.0
07 18:15 Calm 10.00 Fair CLR 70.2 57.4 64% 29.98 0.0
07 17:55 Calm 10.00 Fair CLR 70.5 56.8 62% 29.99 0.0
07 17:35 Calm 10.00 Fair CLR 71.1 57.2 62% 29.96 0.0
07 17:15 Calm 10.00 Fair CLR 72.5 56.7 58% 29.97 0.0
07 16:55 Calm 10.00 Fair CLR 71.6 56.3 59% 29.98 0.0
07 16:35 Calm 10.00 Fair CLR 71.4 57 61% 29.98 0.0
07 16:15 Calm 10.00 Fair CLR 71.4 56.7 60% 29.98 0.0
07 15:55 Calm 10.00 Fair CLR 70.9 55.9 59% 29.99 0.0
07 15:35 Calm 10.00 Fair CLR 70.7 56.3 60% 29.99 0.0
07 15:15 Calm 10.00 Fair CLR 70.7 55.6 59% 30 0.0
07 14:55 Calm 10.00 Fair CLR 70.7 54.9 57% 30 0.0
07 14:35 N 9 10.00 Fair CLR 71.1 55.9 59% 30.01 0.0
07 14:15 NE 7 10.00 Partly Cloudy SCT035 71.2 56.3 59% 30.01 0.0
07 13:55 Calm 10.00 Fair CLR 71.8 56.5 59% 30.01 0.0
07 13:35 Calm 10.00 Fair CLR 70.2 56.1 61% 30.01 0.0
07 13:15 NE 7 10.00 Fair CLR 71.6 57.6 61% 30.01 0.0
07 12:55 Calm 10.00 Fair CLR 69.6 57 69.6 54.9 64% 30.02 0.0
07 12:35 N 8 10.00 Fair CLR 68.5 56.3 65% 30.03 0.0
07 12:15 NE 9 10.00 Fair CLR 67.8 56.3 67% 30.03 0.0
07 11:55 Calm 10.00 Partly Cloudy SCT019 66 56.1 71% 30.06 0.0
07 11:35 Calm 10.00 Partly Cloudy SCT019 62.8 54.5 75% 30.06 0.0
07 11:15 Calm 10.00 Partly Cloudy SCT015 63.1 54.9 75% 30.05 0.0
07 10:55 Calm 10.00 Mostly Cloudy BKN015 62.6 54.9 76% 30.07 0.0
07 10:35 Calm 10.00 Overcast OVC013 60.8 54 78% 30.06 0.0
07 10:15 Calm 10.00 Overcast OVC013 59.2 53.4 81% 30.07 0.0
07 09:55 Calm 10.00 Overcast OVC013 58.6 53.2 82% 30.07 0.0
07 09:35 N 9 10.00 Overcast OVC011 57.7 53.2 85% 30.07 0.0
07 09:15 N 3 10.00 Overcast OVC011 57.2 53.2 87% 30.06 0.0
07 08:55 NE 7 10.00 Overcast OVC011 56.7 52.9 87% 30.05 0.0
07 08:35 N 9 10.00 Overcast OVC011 56.5 53.4 90% 30.05 0.0
07 08:15 Calm 10.00 Overcast OVC011 55.9 53.6 92% 30.06 0.0
07 07:55 Calm 10.00 Overcast OVC011 55.9 54 93% 30.05 0.0
07 07:35 Calm 10.00 Overcast OVC011 55.6 53.6 93% 30.04 0.0
07 07:15 Calm 10.00 Overcast OVC011 55 53.2 94% 30.03 0.0
07 06:55 Calm 10.00 Overcast OVC011 55 53.4 57.7 54.5 94% 30.02 0.0
07 06:35 Calm 10.00 Overcast OVC009 54.9 53.1 94% 30 0.0
07 06:15 Calm 10.00 Overcast OVC009 54.7 53.4 96% 30 0.0
07 05:55 Calm 10.00 Overcast OVC009 54.7 53.4 96% 30 0.0
07 05:35 Calm 10.00 Overcast OVC009 54.9 53.6 96% 30 0.0
07 05:15 Calm 10.00 Overcast OVC009 54.7 53.8 97% 29.99 0.0
07 04:55 N 8 10.00 Overcast OVC007 54.7 53.8 97% 29.99 0.0
07 04:35 N 5 10.00 Overcast OVC009 55 54.7 99% 29.98 0.0
07 04:15 Calm 10.00 Overcast BKN009 OVC013 55 55 100% 29.98 0.0
07 03:55 N 8 10.00 Overcast OVC009 55 55 100% 29.99 0.0
07 03:35 N 9 5.00 Light Rain BKN007 OVC010 55.6 55.6 100% 29.98 0.0
07 03:15 N 8 7.00 Overcast OVC007 55.8 55.8 100% 29.98 0.0
07 02:55 N 8 10.00 Overcast OVC007 56.3 56.3 100% 30 0.0
07 02:35 N 7 10.00 Overcast OVC009 56.3 56.3 100% 29.98 0.0
07 02:15 N 10 10.00 Overcast OVC009 56.3 56.3 100% 29.98 0.0
07 01:55 N 7 7.00 Overcast OVC007 56.5 56.5 100% 29.99 0.0
07 01:35 N 6 7.00 Light Drizzle OVC007 57 57 100% 29.99 0.0
07 01:15 N 8 10.00 Overcast OVC009 57.4 57 99% 29.99 0.0
07 00:55 Calm 10.00 Overcast OVC011 58.1 56.5 65.3 58.1 94% 29.98 0.0
07 00:35 N 5 10.00 Overcast OVC013 58.1 55.9 93% 29.99 0.0
07 00:15 N 6 10.00 Overcast OVC011 58.3 55.9 92% 29.97 0.0
06 23:55 N 9 G 16 10.00 Overcast OVC009 58.3 56.3 93% 29.99 0.0
06 23:35 N 10 10.00 Overcast OVC007 58.8 58.3 98% 29.96 0.0
06 23:15 N 7 10.00 Overcast OVC007 59 58.6 99% 29.96 0.0
06 22:55 N 10 10.00 Overcast OVC007 59 59 100% 29.95 0.0
06 22:35 N 10 10.00 Overcast OVC007 59.4 59.4 100% 29.95 0.0
06 22:15 N 9 10.00 Overcast OVC009 60.3 60.1 99% 29.94 0.0
06 21:55 N 6 10.00 Overcast OVC009 60.4 59.9 98% 29.93 0.0
06 21:35 N 8 10.00 Overcast OVC009 60.8 60.8 100% 29.93 0.0
06 21:15 N 9 10.00 Overcast OVC009 61.2 60.4 98% 29.93 0.0
06 20:55 N 5 10.00 Overcast OVC011 61.3 61 99% 29.91 0.0
06 20:35 N 10 10.00 Overcast OVC009 61.7 61.3 99% 29.89 0.0
06 20:15 N 7 10.00 Overcast OVC009 62.6 62.6 100% 29.89 0.0
06 19:55 N 8 10.00 Overcast OVC009 63.5 63.5 100% 29.88 0.0
06 19:35 N 9 10.00 Overcast OVC010 64 64 100% 29.86 0.0
06 19:15 N 9 10.00 Overcast BKN010 BKN060 OVC070 64.8 64.8 100% 29.85 0.0
06 18:55 N 6 10.00 Light Rain SCT010 BKN045 OVC060 65.3 65.3 83.7 65.3 100% 29.84 0.0
06 18:35 N 9 10.00 Light Rain SCT012 BKN030 OVC060 67.3 67.3 100% 29.85 0.0
06 18:15 N 13 10.00 Thunderstorm in Vicinity SCT015 SCT021 OVC028 68.9 68.9 100% 29.84 0.0
06 17:55 N 10 4.00 Rain BKN015 BKN027 OVC036 71.1 71.1 100% 29.82 0.0
06 17:35 N 8 1.50 Heavy Rain SCT007 BKN014 OVC026 75.7 73.4 92% 75 29.82 0.0
06 17:15 Calm 7.00 Overcast OVC026 81.5 73 76% 87 29.79 0.0
06 16:55 Calm 7.00 Mostly Cloudy BKN028 BKN065 82.6 72.7 72% 88 29.79 0.0
06 16:35 Calm 10.00 Mostly Cloudy SCT065 BKN070 82.6 73 73% 88 29.8 0.0
06 16:15 Calm 10.00 Mostly Cloudy BKN065 82.6 72 70% 88 29.8 0.0
06 15:55 Calm 10.00 Mostly Cloudy SCT024 SCT055 BKN070 83.1 72.3 70% 89 29.8 0.0
06 15:35 Calm 10.00 Mostly Cloudy BKN024 BKN034 BKN070 82.9 72.9 72% 89 29.8 0.0
06 15:15 Calm 10.00 Mostly Cloudy SCT027 BKN034 BKN044 82.9 73.2 73% 89 29.81 0.0
06 14:55 Calm 10.00 Partly Cloudy SCT021 SCT031 SCT046 82.2 73 74% 88 29.81 0.0
06 14:35 Calm 10.00 Partly Cloudy SCT021 SCT031 SCT039 83.3 73.9 73% 90 29.81 0.0
06 14:15 Calm 10.00 Partly Cloudy SCT020 SCT034 SCT044 82.2 73 74% 88 29.82 0.0
06 13:55 Calm 10.00 Partly Cloudy SCT020 SCT030 SCT036 81.9 72.9 74% 87 29.84 0.0
06 13:35 Calm 10.00 Mostly Cloudy SCT030 BKN036 BKN045 81.3 73 76% 86 29.86 0.0
06 13:15 Calm 10.00 Mostly Cloudy SCT022 BKN029 BKN037 81.1 72.5 75% 86 29.88 0.0
06 12:55 Calm 10.00 Overcast BKN024 BKN040 OVC049 80.2 72.5 82 72.1 77% 84 29.89 0.0
06 12:35 Calm 10.00 Overcast SCT024 BKN035 OVC055 81.5 72.9 75% 87 29.89 0.0
06 12:15 Calm 10.00 Mostly Cloudy SCT027 BKN035 BKN048 81.3 72.3 74% 86 29.89 0.0
06 11:55 S 8 10.00 Partly Cloudy SCT023 SCT029 81.5 72.7 75% 86 29.88 0.0
06 11:35 Calm 10.00 Partly Cloudy SCT075 80.2 72.7 78% 84 29.89 0.0
06 11:15 Calm 10.00 Mostly Cloudy SCT021 SCT049 BKN070 80.2 73.2 79% 85 29.88 0.0
06 10:55 Calm 10.00 Overcast SCT021 BKN025 OVC060 79.3 72.7 80% 83 29.88 0.0
06 10:35 Calm 10.00 Overcast SCT016 BKN050 OVC060 79.7 72 77% 83 29.88 0.0
06 10:15 Calm 10.00 Overcast BKN016 BKN023 OVC050 79.7 73 80% 84 29.88 0.0
06 09:55 Calm 10.00 Overcast BKN016 OVC024 78.6 73.9 86% 82 29.88 0.0
06 09:35 Calm 10.00 Overcast BKN013 BKN019 OVC050 77.9 74.1 88% 80 29.88 0.0
06 09:15 Calm 10.00 Overcast OVC011 77 74.3 91% 78 29.87 0.0
06 08:55 Calm 10.00 Overcast OVC011 75.6 73.8 94% 75 29.87 0.0
06 08:35 Calm 7.00 Overcast OVC011 75.4 73.6 94% 74 29.87 0.0
06 08:15 Calm 7.00 Overcast SCT011 OVC050 75.2 73.8 95% 74 29.86 0.0
06 07:55 Calm 7.00 Overcast OVC050 74.5 73.6 97% 29.86 0.0
06 07:35 Calm 7.00 Overcast OVC050 73.9 73.6 99% 29.85 0.0
06 07:15 Calm 7.00 Mostly Cloudy BKN050 73.6 73.6 100% 29.84 0.0
06 06:55 Calm 7.00 Partly Cloudy SCT038 SCT055 72 72 75.2 71.8 100% 29.84 0.0
06 06:35 Calm 7.00 Mostly Cloudy BKN040 BKN050 72.5 72.5 100% 29.83 0.0
06 06:15 Calm 10.00 Mostly Cloudy SCT040 BKN050 73.4 72.5 97% 29.83 0.0
06 05:55 Calm 10.00 Mostly Cloudy BKN050 73.8 72.5 96% 29.82 0.0
06 05:35 Calm 10.00 Overcast SCT013 OVC050 74.3 72.5 94% 29.81 0.0
06 05:15 Calm 10.00 Overcast SCT013 OVC050 74.5 72.5 94% 29.82 0.0
06 04:55 S 3 10.00 Overcast OVC050 74.5 72.5 94% 29.81 0.0
06 04:35 S 8 10.00 Overcast SCT015 OVC050 74.5 72.3 93% 29.8 0.0
06 04:15 Calm 10.00 Overcast OVC015 74.3 72.5 94% 29.8 0.0
06 03:55 Calm 10.00 Overcast OVC015 74.3 72.5 94% 29.81 0.0
06 03:35 Calm 10.00 Overcast OVC015 73.8 72.5 96% 29.81 0.0
06 03:15 Calm 10.00 Overcast OVC017 73.6 72.5 96% 29.82 0.0
06 02:55 Calm 10.00 Overcast OVC015 74.5 71.2 90% 29.83 0.0
06 02:35 Calm 10.00 Overcast OVC015 74.7 71.1 89% 29.84 0.0
06 02:15 Calm 10.00 Overcast OVC015 74.8 70.9 88% 29.83 0.0
06 01:55 Calm 10.00 Overcast OVC015 75.2 70.9 87% 75 29.83 0.0
06 01:35 SW 7 10.00 Overcast OVC017 74.8 70.7 87% 29.82 0.0
06 01:15 Calm 10.00 Overcast OVC017 75.2 71.2 88% 75 29.82 0.0
06 00:55 S 8 10.00 Overcast OVC017 75.2 71.4 78.1 74.5 88% 75 29.81 0.0
06 00:35 Calm 10.00 Overcast OVC017 75 71.6 89% 74 29.81 0.0
06 00:15 Calm 10.00 Overcast OVC017 74.8 71.6 90% 29.82 0.0
05 23:55 Calm 10.00 Overcast OVC017 75 71.6 89% 74 29.82 0.0
05 23:35 Calm 10.00 Overcast OVC017 74.7 71.6 90% 29.81 0.0
05 23:15 S 6 10.00 Overcast OVC017 75.2 71.6 89% 75 29.81 0.0
05 22:55 Calm 10.00 Overcast OVC019 75.2 71.6 89% 75 29.81 0.0
05 22:35 Calm 10.00 Overcast BKN019 OVC029 75.2 71.4 88% 75 29.81 0.0
05 22:15 Calm 10.00 Overcast BKN017 OVC023 75.6 71.6 88% 75 29.81 0.0
05 21:55 S 7 10.00 Overcast OVC022 75.4 71.6 88% 75 29.8 0.0
05 21:35 S 6 10.00 Overcast OVC020 75.4 71.6 88% 75 29.78 0.0
05 21:15 Calm 10.00 Overcast BKN022 BKN030 OVC034 75.2 72.1 90% 74 29.78 0.0
05 20:55 Calm 10.00 Mostly Cloudy BKN022 BKN035 74.8 71.1 88% 29.77 0.0
05 20:35 Calm 10.00 Mostly Cloudy SCT024 BKN029 75.4 70.9 86% 75 29.76 0.0
05 20:15 Calm 10.00 Mostly Cloudy BKN026 BKN034 76.1 70.7 83% 77 29.75 0.0
05 19:55 Calm 10.00 Mostly Cloudy SCT023 BKN032 BKN050 76.5 70.7 82% 78 29.75 0.0
05 19:35 Calm 10.00 Overcast SCT023 BKN030 OVC050 77 70.9 81% 79 29.75 0.0
05 19:15 Calm 10.00 Overcast OVC027 78.1 70.7 78% 80 29.76 0.0
05 18:55 Calm 10.00 Overcast BKN027 BKN034 OVC050 78.3 71.1 81.1 76.1 79% 81 29.76 0.0
05 18:35 Calm 10.00 Overcast SCT029 SCT034 OVC050 78.8 70.9 77% 82 29.76 0.0
05 18:15 S 9 G 16 10.00 Overcast SCT024 BKN041 OVC048 79 70.7 76% 82 29.76 0.0
05 17:55 S 13 G 17 10.00 Overcast SCT024 BKN037 OVC046 79.9 70.9 74% 83 29.76 0.0
05 17:35 S 12 G 18 10.00 Overcast SCT026 BKN031 OVC048 79.9 71.1 75% 83 29.75 0.0
05 17:15 S 10 G 16 10.00 Overcast SCT030 BKN037 OVC049 81 70.9 72% 85 29.75 0.0
05 16:55 S 9 G 16 10.00 Overcast BKN029 BKN036 OVC041 80.1 70.5 73% 83 29.76 0.0
05 16:35 S 12 G 16 10.00 Overcast BKN027 OVC042 79.9 70.2 72% 83 29.76 0.0
05 16:15 S 8 G 17 10.00 Overcast BKN023 BKN029 OVC034 79.7 70.9 75% 83 29.77 0.0
05 15:55 S 10 G 17 10.00 Overcast SCT021 BKN029 OVC046 80.6 70.7 72% 84 29.77 0.0
05 15:35 S 13 G 16 10.00 Overcast SCT025 BKN030 OVC036 79.5 70.9 75% 83 29.78 0.0
05 15:15 S 7 10.00 Overcast BKN023 BKN028 OVC034 78.6 70.7 77% 81 29.79 0.0
05 14:55 S 7 10.00 Overcast BKN022 BKN028 OVC034 78.3 70.3 77% 81 29.8 0.0
05 14:35 S 8 10.00 Overcast OVC022 77.7 70 77% 80 29.8 0.0
05 14:15 S 8 10.00 Overcast OVC022 77.2 69.4 77% 79 29.8 0.0
05 13:55 S 7 10.00 Overcast OVC022 77 69.1 77% 79 29.8 0.0
05 13:35 S 10 G 16 7.00 Overcast OVC022 76.5 68.7 77% 78 29.81 0.0
05 13:15 SW 8 G 16 10.00 Overcast OVC022 76.1 68.7 78% 77 29.81 0.0
05 12:55 S 12 G 17 10.00 Overcast OVC022 76.5 68.4 77 64.4 76% 78 29.81 0.0
05 12:35 S 9 G 18 10.00 Overcast OVC022 76.1 68.5 78% 77 29.81 0.0
05 12:15 S 10 10.00 Overcast SCT024 BKN030 OVC039 76.3 68.2 76% 78 29.82 0.0
05 11:55 S 8 10.00 Overcast SCT029 OVC039 77 68.2 74% 79 29.82 0.0
05 11:35 S 6 10.00 Overcast SCT021 OVC026 75.9 68 77% 77 29.83 0.0
05 11:15 S 8 10.00 Overcast SCT022 BKN026 OVC038 75.2 67.6 77% 76 29.83 0.0
05 10:55 S 7 10.00 Overcast BKN020 OVC038 74.7 67.8 79% 29.83 0.0
05 10:35 Calm 10.00 Overcast OVC018 73.4 67.3 81% 29.82 0.0
05 10:15 S 8 10.00 Overcast BKN018 OVC023 73.4 66.9 80% 29.82 0.0
05 09:55 S 7 10.00 Overcast OVC018 72.9 67.1 82% 29.82 0.0
05 09:35 Calm 10.00 Overcast OVC018 71.4 67.1 86% 29.83 0.0
05 09:15 Calm 10.00 Overcast OVC018 69.8 67.1 91% 29.83 0.0
05 08:55 Calm 10.00 Overcast BKN018 BKN025 OVC031 68.9 66 91% 29.83 0.0
05 08:35 Calm 10.00 Overcast SCT018 OVC029 67.8 65.5 92% 29.82 0.0
05 08:15 Calm 10.00 Overcast OVC032 66.7 65.1 95% 29.83 0.0
05 07:55 Calm 10.00 Overcast OVC032 66.2 64.6 95% 29.82 0.0
05 07:35 Calm 10.00 Overcast OVC028 65.5 64.2 96% 29.81 0.0
05 07:15 Calm 10.00 Overcast OVC030 64.8 63.9 97% 29.82 0.0
05 06:55 Calm 10.00 Overcast OVC030 64 63.5 64.9 61.7 98% 29.81 0.0
05 06:35 Calm 10.00 Overcast OVC032 64.2 63.1 96% 29.8 0.0
05 06:15 Calm 10.00 Overcast OVC034 63.9 63.1 98% 29.8 0.0
05 05:55 Calm 10.00 Overcast OVC034 63.7 63 98% 29.8 0.0
05 05:35 Calm 10.00 Overcast SCT027 OVC034 63.3 63 99% 29.81 0.0
05 05:15 Calm 10.00 Overcast BKN027 OVC033 63 62.8 99% 29.82 0.0
05 04:55 Calm 10.00 Overcast OVC025 63.1 62.6 98% 29.83 0.0
05 04:35 Calm 10.00 Overcast OVC025 63.7 62.6 96% 29.83 0.0
Date Time (cdt) Wind (mph) Vis. (mi.) Weather Sky Cond. Air Dwpt Max. Min. Relative Humidity Wind Chill (°F) Heat Index (°F) altimeter (in) sea level (mb) 1 hr 3 hr 6 hr
6 hour
Temperature (ºF) Pressure Precipitation (in)